• Join FlightAware (Why Join?)
  • Login
  • US Flag 
06:29PM EST


 

Airport Tracker/Info


-or-


 

Live Flight TrackerFlight Track Log ✈ SWA886 ✈ 04-May-2013 ✈ KBWI - KIND

Flight Track Log - Related Links

Times and Time Zones

All times are in EDT time to prevent confusion due to time zone crossing. See the SWA886 flight status page for this flight to view local times or setup timezone preferences in your user account.

Time Position Orientation Groundspeed Altitude Reporting Facility
EDT Latitude Longitude Course Direction KTS MPH feet Rate Location/Type
06:28PM 39.1400 -76.6594 256° West 181 208 1,500  Level Washington Center
06:29PM 39.1333 -76.6833 250° West 225 259 2,500 2,280 Climbing Potomac TRACON
06:30PM 39.1667 -76.7667 297° West 263 303 5,100 2,640 Climbing Potomac TRACON
06:31PM 39.1833 -76.8500 284° West 304 350 7,800 2,880 Climbing Potomac TRACON
06:32PM 39.2114 -77.0167 282° West 310 357 12,300 2,760 Climbing Washington Center
06:33PM 39.2056 -77.1425 267° West 322 371 15,000 2,700 Climbing Washington Center
06:34PM 38.9939 -77.3471 256° West  Level FlightAware Approximate
06:34PM 39.1317 -77.2239 221° Southwest 326 375 17,700  Level Washington Center
06:35PM 39.0903 -77.3486 247° West 340 391 19,700 2,040 Climbing Washington Center
06:36PM 39.0714 -77.4872 260° West 375 432 21,900 1,980 Climbing Washington Center
06:37PM 39.0528 -77.6122 259° West 396 456 23,800 1,920 Climbing Washington Center
06:38PM 39.0292 -77.7694 259° West 409 471 25,800 1,620 Climbing Washington Center
06:39PM 39.0078 -77.9156 259° West 414 476 27,100 1,380 Climbing Washington Center
06:40PM 38.9861 -78.0511 258° West 422 486 28,600 1,320 Climbing Washington Center
06:41PM 38.9642 -78.2025 259° West 428 493 29,900 1,560 Climbing Washington Center
06:42PM 38.9650 -78.3547 270° West 428 493 31,700 1,560 Climbing Washington Center
06:43PM 38.9700 -78.5044 273° West 422 486 33,000 1,140 Climbing Washington Center
06:44PM 38.9744 -78.6569 272° West 422 486 34,100 1,200 Climbing Washington Center
06:45PM 38.9789 -78.8067 272° West 422 486 35,400 900 Climbing Washington Center
06:46PM 38.9831 -78.9564 272° West 422 486 36,000 240 Climbing Washington Center
06:47PM 38.9869 -79.1114 272° West 428 493 36,000  Level Washington Center
06:48PM 38.9928 -79.2667 273° West 428 493 36,000  Level Washington Center
06:49PM 38.9922 -79.4189 270° West 433 498 36,000  Level Washington Center
06:50PM 38.9978 -79.5714 273° West 433 498 36,000  Level Washington Center
06:51PM 39.0006 -79.7292 271° West 438 504 36,000  Level Washington Center
06:52PM 39.0053 -79.8978 272° West 438 504 36,000  Level Washington Center
06:54PM 39.0050 -80.1378 270° West 432 497 36,000  Level Indianapolis Center
06:55PM 39.0081 -80.2900 272° West 428 493 36,000  Level Indianapolis Center
06:56PM 39.0097 -80.4444 271° West 433 498 36,000  Level Indianapolis Center
06:57PM 39.0111 -80.5994 271° West 435 501 36,000  Level Indianapolis Center
06:58PM 39.0211 -80.7544 275° West 440 506 36,000  Level Indianapolis Center
06:59PM 39.0625 -80.9039 290° West 446 513 36,000  Level Indianapolis Center
07:00PM 39.1056 -81.0550 290° West 453 521 36,000  Level Indianapolis Center
07:01PM 39.1472 -81.2064 290° West 452 520 36,000  Level Indianapolis Center
07:02PM 39.1981 -81.3872 290° West 450 518 36,000  Level Indianapolis Center
07:03PM 39.2419 -81.5392 290° West 455 524 36,000  Level Indianapolis Center
07:04PM 39.2833 -81.6936 289° West 457 526 36,000 -120 Level Indianapolis Center
07:05PM 39.3269 -81.8469 290° West 458 527 35,800 -480 Descending Indianapolis Center
07:06PM 39.3692 -82.0033 289° West 461 531 35,100 -420 Descending Indianapolis Center
07:07PM 39.4117 -82.1583 290° West 459 528 35,000 -840 Descending Indianapolis Center
07:08PM 39.4558 -82.3233 289° West 460 529 33,500 -1,020 Descending Indianapolis Center
07:09PM 39.4972 -82.4772 289° West 451 519 33,000 -300 Descending Indianapolis Center
07:10PM 39.5397 -82.6328 290° West 456 525 33,000  Level Indianapolis Center
07:11PM 39.5822 -82.7908 289° West 461 531 33,000  Level Indianapolis Center
07:12PM 39.6244 -82.9525 289° West 467 537 33,000  Level Indianapolis Center
07:13PM 39.6672 -83.1150 289° West 472 543 33,000 -1,080 Level Indianapolis Center
07:14PM 39.7097 -83.2800 289° West 476 548 30,900 -1,500 Descending Indianapolis Center
07:15PM 39.7508 -83.4397 289° West 459 528 30,000 -480 Descending Indianapolis Center
07:16PM 39.7942 -83.6033 289° West 456 525 30,000  Level Indianapolis Center
07:17PM 39.8356 -83.7664 288° West 464 534 30,000  Level Indianapolis Center
07:18PM 39.8767 -83.9289 288° West 466 536 30,000  Level Indianapolis Center
07:19PM 39.9175 -84.0908 288° West 467 537 30,000 -900 Level Indianapolis Center
07:20PM 39.9569 -84.2469 288° West 453 521 28,200 -2,880 Descending Indianapolis Center
07:21PM 39.9964 -84.4042 288° West 452 520 24,200 -3,900 Descending Indianapolis Center
07:23PM 40.0364 -84.5644 288° West 458 527 20,300 -2,160 Descending Indianapolis Center
07:24PM 40.0386 -84.7269 271° West 440 506 19,900 -180 Descending Indianapolis Center
07:25PM 40.0372 -84.9017 269° West 431 496 20,000 -1,140 Climbing Indianapolis Center
07:26PM 40.0328 -85.0617 268° West 442 509 17,700 -2,340 Descending Indianapolis Center
07:27PM 40.0347 -85.2211 271° West 442 509 15,300 -2,340 Descending Indianapolis Center
07:28PM 40.0303 -85.3647 268° West 405 466 13,000 -2,100 Descending Indianapolis Center
07:29PM 40.0017 -85.4956 254° West 380 437 11,100 -1,260 Descending Indianapolis Center
07:30PM 39.9764 -85.6275 256° West 377 434 10,500 -840 Descending Indianapolis Center
07:31PM 39.9550 -85.7422 256° West 331 381 9,400 -1,380 Descending Indianapolis Center
07:32PM 39.9342 -85.8492 256° West 309 356 7,800 -1,560 Descending Indianapolis Center
07:33PM 39.9108 -85.9719 256° West 298 343 6,300 -1,620 Descending Indianapolis Center
07:34PM 39.8903 -86.0681 254° West 284 327 4,600 -1,200 Descending Indianapolis Center
07:35PM 39.8500 -86.1333 231° Southwest 248 285 4,200 -720 Descending Indianapolis TRACON
07:36PM 39.8167 -86.1833 229° Southwest 223 257 3,300 -1,020 Descending Indianapolis TRACON
07:37PM 39.7667 -86.2333 218° Southwest 169 194 2,100 -960 Descending Indianapolis TRACON
07:38PM 39.7333 -86.2667 218° Southwest 129 148 1,300 -840 Descending Indianapolis TRACON